Gainsborough, United Kingdom
Current Conditions -  °F | °C
As of 9:50 AM on Wednesday 22 Oct 2014 (Local Time) from EGXP Reporting Station
Clear Clear  
Wind Chill: 10°   Ceiling: Unl
Heat Index: 10°   Visibility: 6mi
Dew Point:   Wind: 12mph
Humidity: 82%   Direction: 280°W
Pressure: 30.18"   Gusts: NA
Location:  53.38°N, 0.77°W
Report Text: EGXP 220850Z 28010KT CAVOK 10/07 Q1022 BLU
Loading
Personal Weather Stations






























Interactive Weather Map
Tropical Storm Tracking
New forecast layout! Learn more

10-Day Weather Forecast

Advertisements
Track Severe Weather on mobile